Time;durP1;ratioP1;P1;durP2;ratioP2;P2;SDS_P1;SDS_P2;PMS_P1;PMS_P2;Temp;Humidity;BMP_temperature;BMP_pressure;BME280_temperature;BME280_humidity;BME280_pressure;Samples;Min_cycle;Max_cycle;Signal;HPM_P1;HPM_P2
2023/10/06 00:01:44;;;;;;;7.05;3.55;;;15.90;98.20;;;;;;5033765;28;20528;-80
2023/10/06 00:04:15;;;;;;;10.60;3.92;;;15.90;98.20;;;;;;5035295;28;20096;-80
2023/10/06 00:06:42;;;;;;;10.68;4.22;;;15.80;98.10;;;;;;5033995;28;20500;-80
2023/10/06 00:09:28;;;;;;;9.35;3.92;;;15.80;98.10;;;;;;5033619;28;20117;-80
2023/10/06 00:11:57;;;;;;;11.57;4.13;;;15.80;98.20;;;;;;5035390;28;20025;-81
2023/10/06 00:17:17;;;;;;;11.43;4.50;;;15.70;98.30;;;;;;5035112;28;20044;-80
2023/10/06 00:19:44;;;;;;;12.20;3.95;;;15.70;98.50;;;;;;5035079;28;20528;-81
2023/10/06 00:24:55;;;;;;;11.20;4.28;;;15.70;98.60;;;;;;5034799;28;20100;-81
2023/10/06 00:27:24;;;;;;;7.25;4.15;;;15.70;98.60;;;;;;5034879;28;20451;-81
2023/10/06 00:30:00;;;;;;;9.05;3.60;;;15.70;98.70;;;;;;5034718;28;20461;-81
2023/10/06 00:32:26;;;;;;;7.70;3.58;;;15.70;98.60;;;;;;5034993;28;20030;-80
2023/10/06 00:35:14;;;;;;;9.27;3.78;;;15.80;98.70;;;;;;5033517;28;20017;-80
2023/10/06 00:37:41;;;;;;;8.32;3.53;;;15.80;98.70;;;;;;5034453;28;20022;-81
2023/10/06 00:40:19;;;;;;;9.30;3.42;;;15.80;98.70;;;;;;5034133;28;20076;-81
2023/10/06 00:42:50;;;;;;;13.50;4.47;;;15.80;98.70;;;;;;5034364;28;20105;-80
2023/10/06 00:45:16;;;;;;;8.70;3.60;;;15.80;98.70;;;;;;5034695;28;20025;-82
2023/10/06 00:47:42;;;;;;;8.93;3.90;;;15.80;98.80;;;;;;5033565;28;20021;-82
2023/10/06 00:50:11;;;;;;;8.20;4.07;;;15.70;98.80;;;;;;5034001;28;20030;-81
2023/10/06 00:52:39;;;;;;;8.50;4.28;;;15.70;98.80;;;;;;5034636;28;20025;-82
2023/10/06 00:55:10;;;;;;;9.30;3.88;;;15.70;98.80;;;;;;5033870;28;20516;-83
2023/10/06 00:57:36;;;;;;;11.40;3.58;;;15.70;98.80;;;;;;5033004;28;20347;-83
2023/10/06 01:00:16;;;;;;;9.98;4.03;;;15.70;98.90;;;;;;5034247;28;20079;-82
2023/10/06 01:02:43;;;;;;;9.70;3.88;;;15.70;98.90;;;;;;5034309;28;20388;-80
2023/10/06 01:05:09;;;;;;;9.23;4.07;;;15.70;98.90;;;;;;5034270;28;20026;-81
2023/10/06 01:07:36;;;;;;;7.55;4.03;;;15.60;99.00;;;;;;5034710;28;20442;-80
2023/10/06 01:10:14;;;;;;;9.50;4.40;;;15.60;99.00;;;;;;5034437;28;20036;-80
2023/10/06 01:12:40;;;;;;;10.57;4.40;;;15.60;99.10;;;;;;5034476;28;20025;-80
2023/10/06 01:15:29;;;;;;;13.13;4.85;;;15.60;99.10;;;;;;5033812;28;20477;-80
2023/10/06 01:17:57;;;;;;;8.45;4.35;;;15.60;99.20;;;;;;5019863;28;20027;-80
2023/10/06 01:20:41;;;;;;;8.40;4.85;;;15.60;99.20;;;;;;5034040;28;20454;-80
2023/10/06 01:26:02;;;;;;;9.43;3.85;;;15.50;99.30;;;;;;5029012;28;20040;-80
2023/10/06 01:28:28;;;;;;;9.45;4.10;;;15.50;99.40;;;;;;5032457;28;20037;-81
2023/10/06 01:30:54;;;;;;;11.50;4.22;;;15.50;99.40;;;;;;5033755;28;20026;-81
2023/10/06 01:33:19;;;;;;;11.13;4.85;;;15.50;99.40;;;;;;5033821;28;20512;-81
2023/10/06 01:35:49;;;;;;;9.25;4.40;;;15.50;99.40;;;;;;5033389;28;20029;-80
2023/10/06 01:38:23;;;;;;;10.02;4.82;;;15.40;99.50;;;;;;5032526;28;20519;-81
2023/10/06 01:40:52;;;;;;;12.45;4.80;;;15.40;99.60;;;;;;5033932;28;20033;-81
2023/10/06 01:43:22;;;;;;;9.93;4.50;;;15.40;99.60;;;;;;5033278;28;20032;-81
2023/10/06 01:45:49;;;;;;;10.73;4.75;;;15.40;99.60;;;;;;5033199;28;20084;-80
2023/10/06 01:48:22;;;;;;;7.72;4.25;;;15.30;99.70;;;;;;5033490;28;20033;-80
2023/10/06 01:50:54;;;;;;;13.45;5.22;;;15.30;99.80;;;;;;5033866;28;20029;-81
2023/10/06 01:53:20;;;;;;;9.63;4.93;;;15.30;99.90;;;;;;5033837;28;20076;-82
2023/10/06 01:55:52;;;;;;;10.18;5.00;;;15.30;99.90;;;;;;5033454;28;20025;-81
2023/10/06 01:58:18;;;;;;;9.90;4.60;;;15.20;99.90;;;;;;5035361;28;20034;-79
2023/10/06 02:00:47;;;;;;;11.48;4.53;;;15.20;99.90;;;;;;5020406;28;20080;-80
2023/10/06 02:03:16;;;;;;;12.27;4.50;;;15.10;99.90;;;;;;5037295;28;20025;-80
2023/10/06 02:05:42;;;;;;;10.30;4.57;;;15.10;99.90;;;;;;5037476;28;20033;-80
2023/10/06 02:08:21;;;;;;;8.32;4.40;;;15.10;99.90;;;;;;5037075;28;20446;-79
2023/10/06 02:10:50;;;;;;;11.40;4.90;;;15.10;99.90;;;;;;5037725;28;20068;-80
2023/10/06 02:13:21;;;;;;;15.95;5.00;;;15.10;99.90;;;;;;5035876;28;20028;-80
2023/10/06 02:15:58;;;;;;;12.07;5.25;;;15.10;99.90;;;;;;5036613;28;20426;-79
2023/10/06 02:18:35;;;;;;;8.63;4.97;;;15.10;99.90;;;;;;5037058;28;20021;-79
2023/10/06 02:21:14;;;;;;;11.77;4.85;;;15.10;99.90;;;;;;5037357;28;20079;-80
2023/10/06 02:23:41;;;;;;;8.50;3.97;;;15.10;99.90;;;;;;5037156;28;20472;-81
2023/10/06 02:26:09;;;;;;;13.48;4.78;;;15.00;99.90;;;;;;5037407;28;20029;-81
2023/10/06 02:28:43;;;;;;;11.93;5.30;;;15.00;99.90;;;;;;5036335;28;20088;-80
2023/10/06 02:31:10;;;;;;;9.57;4.40;;;15.00;99.90;;;;;;5036830;28;20450;-79
2023/10/06 02:33:39;;;;;;;13.20;4.95;;;15.00;99.90;;;;;;5037547;28;20049;-80
2023/10/06 02:36:23;;;;;;;9.15;4.53;;;14.90;99.90;;;;;;5036764;28;20058;-80
2023/10/06 02:38:50;;;;;;;10.27;4.80;;;14.90;99.90;;;;;;5036853;28;20025;-81
2023/10/06 02:41:26;;;;;;;11.43;4.53;;;14.90;99.90;;;;;;5037191;28;20483;-80
2023/10/06 02:43:54;;;;;;;11.93;4.88;;;14.90;99.90;;;;;;5036619;28;20029;-81
2023/10/06 02:46:20;;;;;;;12.02;4.78;;;14.90;99.90;;;;;;5036794;28;20030;-81
2023/10/06 02:48:49;;;;;;;11.40;4.97;;;14.90;99.90;;;;;;5036471;28;20088;-81
2023/10/06 02:51:29;;;;;;;14.07;5.35;;;14.90;99.90;;;;;;5035627;28;20481;-81
2023/10/06 02:56:46;;;;;;;9.93;4.78;;;14.90;99.90;;;;;;5036392;28;20048;-81
2023/10/06 02:59:23;;;;;;;12.35;4.43;;;15.00;99.90;;;;;;5036337;28;20021;-81
2023/10/06 03:02:00;;;;;;;8.82;4.22;;;14.90;99.90;;;;;;5036494;28;20055;-82
2023/10/06 03:04:27;;;;;;;10.07;4.80;;;14.90;99.90;;;;;;5035515;28;20120;-81
2023/10/06 03:06:59;;;;;;;12.85;4.95;;;14.90;99.90;;;;;;5036458;28;20040;-80
2023/10/06 03:09:43;;;;;;;10.60;4.60;;;14.90;99.90;;;;;;5035496;28;20030;-81
2023/10/06 03:14:50;;;;;;;12.05;4.70;;;14.90;99.90;;;;;;5036198;28;20083;-80
2023/10/06 03:17:19;;;;;;;13.52;4.40;;;14.90;99.90;;;;;;5036220;28;20025;-82
2023/10/06 03:19:49;;;;;;;11.05;4.20;;;14.90;99.90;;;;;;5035212;28;20021;-82
2023/10/06 03:22:14;;;;;;;13.30;4.30;;;14.90;99.90;;;;;;5035873;28;20053;-83
2023/10/06 03:24:58;;;;;;;9.55;3.67;;;14.80;99.90;;;;;;5034566;28;20055;-82
2023/10/06 03:27:24;;;;;;;10.82;3.65;;;14.90;99.90;;;;;;5036152;28;20017;-82
2023/10/06 03:30:02;;;;;;;11.98;4.72;;;14.80;99.90;;;;;;5035975;28;20035;-81
2023/10/06 03:32:32;;;;;;;14.05;4.28;;;14.80;99.90;;;;;;5035279;28;20025;-81
2023/10/06 03:35:17;;;;;;;7.78;4.45;;;14.80;99.90;;;;;;5035619;28;20040;-83
2023/10/06 03:37:51;;;;;;;10.13;4.18;;;14.80;99.90;;;;;;5035572;28;20021;-82
2023/10/06 03:40:30;;;;;;;7.45;4.10;;;14.70;99.90;;;;;;5035919;28;20088;-82
2023/10/06 03:42:57;;;;;;;9.07;4.20;;;14.70;99.90;;;;;;5035538;28;20025;-84
2023/10/06 03:45:27;;;;;;;7.85;3.83;;;14.70;99.90;;;;;;5035172;28;20028;-83
2023/10/06 03:47:54;;;;;;;9.38;3.70;;;14.70;99.90;;;;;;5034114;28;20462;-82
2023/10/06 03:50:20;;;;;;;9.35;4.13;;;14.70;99.90;;;;;;5035870;28;20116;-82
2023/10/06 03:52:49;;;;;;;12.32;4.32;;;14.70;99.90;;;;;;5033786;28;20033;-83
2023/10/06 03:55:14;;;;;;;10.25;4.05;;;14.70;99.90;;;;;;5035521;28;20112;-83
2023/10/06 03:57:40;;;;;;;13.13;4.30;;;14.70;99.90;;;;;;5034485;28;20429;-82
2023/10/06 04:00:07;;;;;;;8.43;3.65;;;14.70;99.90;;;;;;5033916;28;20501;-83
2023/10/06 04:02:38;;;;;;;8.77;3.83;;;14.70;99.90;;;;;;5035046;28;20053;-83
2023/10/06 04:05:07;;;;;;;11.35;4.30;;;14.70;99.90;;;;;;5035123;28;20091;-83
2023/10/06 04:07:33;;;;;;;18.05;4.57;;;14.70;99.90;;;;;;5034987;28;20527;-83
2023/10/06 04:10:03;;;;;;;13.13;4.05;;;14.70;99.90;;;;;;5033665;28;20045;-82
2023/10/06 04:12:29;;;;;;;10.88;4.25;;;14.60;99.90;;;;;;5034992;28;20022;-81
2023/10/06 04:14:54;;;;;;;10.75;4.28;;;14.60;99.90;;;;;;5034738;28;20037;-82
2023/10/06 04:17:21;;;;;;;10.27;4.07;;;14.70;99.90;;;;;;5035207;28;20033;-82
2023/10/06 04:19:48;;;;;;;8.68;4.15;;;14.60;99.90;;;;;;5034791;28;20025;-80
2023/10/06 04:22:14;;;;;;;9.52;4.75;;;14.60;99.90;;;;;;5034125;28;20018;-80
2023/10/06 04:24:40;;;;;;;9.57;4.20;;;14.50;99.90;;;;;;5035225;28;20029;-80
2023/10/06 04:27:06;;;;;;;7.82;4.75;;;14.50;99.90;;;;;;5034681;28;20060;-80
2023/10/06 04:29:35;;;;;;;11.27;4.35;;;14.50;99.90;;;;;;5034326;28;20377;-80
2023/10/06 04:32:01;;;;;;;9.35;4.30;;;14.60;99.90;;;;;;5034443;28;20476;-81
2023/10/06 04:34:33;;;;;;;10.07;4.38;;;14.50;99.90;;;;;;5034997;28;20057;-81
2023/10/06 04:37:00;;;;;;;11.68;4.55;;;14.50;99.90;;;;;;5035146;28;20075;-81
2023/10/06 04:39:26;;;;;;;8.07;4.00;;;14.50;99.90;;;;;;5034072;28;20025;-81
2023/10/06 04:41:55;;;;;;;14.57;4.43;;;14.50;99.90;;;;;;5034303;28;20041;-82
2023/10/06 04:44:21;;;;;;;13.48;4.25;;;14.40;99.90;;;;;;5034722;28;20397;-82
2023/10/06 04:46:46;;;;;;;8.77;3.90;;;14.40;99.90;;;;;;5034052;28;20082;-81
2023/10/06 04:49:12;;;;;;;11.57;4.20;;;14.50;99.90;;;;;;5034181;28;20065;-81
2023/10/06 04:51:38;;;;;;;11.40;4.65;;;14.40;99.90;;;;;;5034719;28;20025;-82
2023/10/06 04:54:07;;;;;;;10.57;4.40;;;14.40;99.90;;;;;;5034070;28;20076;-81
2023/10/06 04:56:33;;;;;;;11.93;4.35;;;14.40;99.90;;;;;;5032709;28;20433;-81
2023/10/06 04:58:59;;;;;;;10.35;4.25;;;14.30;99.90;;;;;;5033983;28;20025;-80
2023/10/06 05:01:29;;;;;;;9.45;4.22;;;14.30;99.90;;;;;;5033953;28;20029;-80
2023/10/06 05:03:55;;;;;;;10.25;4.80;;;14.30;99.90;;;;;;5033937;28;20108;-80
2023/10/06 05:06:21;;;;;;;12.73;4.78;;;14.30;99.90;;;;;;5032627;28;20445;-81
2023/10/06 05:08:47;;;;;;;11.98;4.50;;;14.30;99.90;;;;;;5034685;28;20497;-81
2023/10/06 05:11:14;;;;;;;7.80;4.25;;;14.30;99.90;;;;;;5034111;28;20117;-80
2023/10/06 05:13:40;;;;;;;10.23;4.40;;;14.30;99.90;;;;;;5033645;28;20035;-80
2023/10/06 05:16:06;;;;;;;10.13;3.63;;;14.30;99.90;;;;;;5033625;28;20104;-80
2023/10/06 05:18:33;;;;;;;9.95;4.25;;;14.30;99.90;;;;;;5033831;28;20493;-80
2023/10/06 05:20:58;;;;;;;11.57;5.40;;;14.30;99.90;;;;;;5032483;28;20036;-82
2023/10/06 05:23:26;;;;;;;10.30;3.45;;;14.30;99.90;;;;;;5033560;28;20112;-80
2023/10/06 05:25:53;;;;;;;8.32;3.47;;;14.40;99.90;;;;;;5033158;28;20032;-82
2023/10/06 05:28:20;;;;;;;11.65;3.97;;;14.40;99.90;;;;;;5033791;28;20335;-83
2023/10/06 05:30:46;;;;;;;8.95;4.35;;;14.50;99.90;;;;;;5032968;28;20052;-82
2023/10/06 05:33:14;;;;;;;9.32;3.95;;;14.60;99.90;;;;;;5037032;28;20042;-82
2023/10/06 05:35:39;;;;;;;7.22;3.78;;;14.60;99.90;;;;;;5040223;28;20055;-81
2023/10/06 05:38:13;;;;;;;4.38;3.50;;;14.60;99.90;;;;;;5040300;28;20037;-83
2023/10/06 05:40:40;;;;;;;8.73;3.80;;;14.60;99.90;;;;;;5040243;28;20084;-81
2023/10/06 05:43:11;;;;;;;9.55;4.50;;;14.70;99.90;;;;;;5040286;28;20033;-83
2023/10/06 05:45:39;;;;;;;9.45;4.45;;;14.70;99.90;;;;;;5039520;28;20048;-82
2023/10/06 05:48:09;;;;;;;8.02;4.20;;;14.80;99.90;;;;;;5039973;28;20100;-81
2023/10/06 05:50:35;;;;;;;9.02;4.53;;;14.70;99.90;;;;;;5040726;28;20029;-82
2023/10/06 05:53:04;;;;;;;11.35;5.70;;;14.70;99.90;;;;;;5040173;28;20108;-82
2023/10/06 05:55:41;;;;;;;11.10;5.28;;;14.80;99.90;;;;;;5040159;28;20022;-77
2023/10/06 05:58:14;;;;;;;9.80;5.60;;;14.80;99.90;;;;;;5039963;28;20048;-81
2023/10/06 06:00:50;;;;;;;13.57;6.43;;;14.80;99.90;;;;;;5039919;28;20049;-83
2023/10/06 06:03:20;;;;;;;10.30;5.47;;;14.80;99.90;;;;;;5038451;28;20044;-77
2023/10/06 06:06:02;;;;;;;10.63;5.47;;;14.70;99.90;;;;;;5039938;28;20033;-76
2023/10/06 06:08:30;;;;;;;10.97;5.10;;;14.70;99.90;;;;;;5040633;28;20111;-79
2023/10/06 06:10:56;;;;;;;11.02;5.70;;;14.70;99.90;;;;;;5040513;28;20065;-77
2023/10/06 06:13:22;;;;;;;10.40;4.63;;;14.70;99.90;;;;;;5038464;28;20128;-79
2023/10/06 06:15:48;;;;;;;9.57;4.88;;;14.70;99.90;;;;;;5039730;28;20112;-78
2023/10/06 06:18:14;;;;;;;9.70;4.70;;;14.70;99.90;;;;;;5039793;28;20033;-78
2023/10/06 06:20:42;;;;;;;12.65;4.97;;;14.70;99.90;;;;;;5039725;28;20033;-76
2023/10/06 06:23:09;;;;;;;10.20;4.47;;;14.70;99.90;;;;;;5040120;28;20072;-76
2023/10/06 06:25:39;;;;;;;6.70;3.58;;;14.70;99.90;;;;;;5039990;28;20038;-78
2023/10/06 06:28:05;;;;;;;11.93;3.95;;;14.70;99.90;;;;;;5040086;28;20037;-80
2023/10/06 06:30:34;;;;;;;8.93;3.90;;;14.60;99.90;;;;;;5038781;28;20412;-78
2023/10/06 06:33:04;;;;;;;14.68;3.70;;;14.70;99.90;;;;;;5039396;28;20049;-82
2023/10/06 06:35:30;;;;;;;12.38;4.00;;;14.70;99.90;;;;;;5039390;28;20078;-81
2023/10/06 06:38:01;;;;;;;8.88;3.40;;;14.70;99.90;;;;;;5039382;28;20104;-81
2023/10/06 06:40:31;;;;;;;10.85;3.95;;;14.70;99.90;;;;;;5038034;28;20026;-80
2023/10/06 06:42:59;;;;;;;7.90;3.72;;;14.70;99.90;;;;;;5039404;28;20033;-79
2023/10/06 06:45:26;;;;;;;8.95;3.33;;;14.70;99.90;;;;;;5035975;28;20087;-78
2023/10/06 06:47:52;;;;;;;7.55;2.85;;;14.80;99.90;;;;;;5036468;28;20033;-77
2023/10/06 06:50:19;;;;;;;10.13;3.40;;;14.80;99.90;;;;;;5036392;28;20053;-77
2023/10/06 06:52:46;;;;;;;7.35;3.30;;;14.80;99.90;;;;;;5036183;28;20112;-81
2023/10/06 06:55:13;;;;;;;9.63;3.67;;;14.80;99.90;;;;;;5035883;28;20036;-79
2023/10/06 06:57:46;;;;;;;8.73;2.72;;;14.70;99.90;;;;;;5036043;28;20056;-78
2023/10/06 07:00:17;;;;;;;10.10;4.10;;;14.80;99.90;;;;;;5036053;28;20029;-80
2023/10/06 07:02:47;;;;;;;8.68;3.47;;;14.80;99.90;;;;;;5036310;28;20061;-78
2023/10/06 07:05:14;;;;;;;6.93;2.85;;;14.80;99.90;;;;;;5036010;28;20064;-77
2023/10/06 07:07:43;;;;;;;7.32;3.25;;;14.80;99.90;;;;;;5036559;28;20450;-74
2023/10/06 07:10:12;;;;;;;9.75;3.15;;;14.80;99.90;;;;;;5036417;28;20045;-76
2023/10/06 07:12:38;;;;;;;7.05;2.88;;;14.90;99.90;;;;;;5035876;28;20120;-76
2023/10/06 07:15:04;;;;;;;9.43;2.78;;;14.90;99.80;;;;;;5035451;28;20064;-77
2023/10/06 07:17:30;;;;;;;7.38;3.10;;;14.90;99.60;;;;;;5035488;28;20440;-76
2023/10/06 07:20:00;;;;;;;8.13;3.15;;;14.90;99.60;;;;;;5035790;28;20033;-74
2023/10/06 07:22:31;;;;;;;9.40;3.30;;;14.90;99.80;;;;;;5036003;28;20084;-75
2023/10/06 07:25:02;;;;;;;7.97;3.40;;;14.90;99.60;;;;;;5035105;28;20117;-75
2023/10/06 07:27:34;;;;;;;6.82;2.83;;;14.90;99.70;;;;;;5036103;28;20026;-74
2023/10/06 07:30:03;;;;;;;8.27;2.95;;;14.90;99.70;;;;;;5034707;28;20042;-75
2023/10/06 07:32:30;;;;;;;6.95;2.85;;;14.90;99.70;;;;;;5035582;28;20022;-77
2023/10/06 07:34:56;;;;;;;8.13;3.38;;;14.90;99.60;;;;;;5035782;28;20040;-76
2023/10/06 07:37:21;;;;;;;9.48;3.75;;;14.90;99.60;;;;;;5035420;28;20033;-77
2023/10/06 07:39:47;;;;;;;9.00;3.30;;;15.00;99.60;;;;;;5035869;28;20033;-76
2023/10/06 07:42:16;;;;;;;9.18;2.78;;;15.00;99.60;;;;;;5035317;28;20036;-75
2023/10/06 07:44:43;;;;;;;9.95;3.55;;;15.10;99.60;;;;;;5034788;28;20037;-75
2023/10/06 07:47:08;;;;;;;8.90;2.88;;;15.10;99.60;;;;;;5035230;28;20034;-78
2023/10/06 07:49:34;;;;;;;9.85;3.20;;;15.20;99.50;;;;;;5016909;28;20042;-80
2023/10/06 07:52:00;;;;;;;9.55;3.28;;;15.30;99.50;;;;;;5033881;28;20037;-78
2023/10/06 07:54:26;;;;;;;11.98;3.38;;;15.30;99.60;;;;;;5035632;28;20041;-86
2023/10/06 07:56:52;;;;;;;6.35;2.90;;;15.30;99.50;;;;;;5035259;28;20108;-80
2023/10/06 07:59:18;;;;;;;11.20;3.80;;;15.40;99.60;;;;;;5035410;28;20453;-84
2023/10/06 08:01:44;;;;;;;10.05;3.20;;;15.50;99.50;;;;;;5018028;28;20029;-81
2023/10/06 08:04:10;;;;;;;8.55;3.08;;;15.50;99.30;;;;;;5035818;28;20374;-83
2023/10/06 08:06:36;;;;;;;7.57;3.30;;;15.60;99.30;;;;;;5035541;28;20151;-85
2023/10/06 08:09:05;;;;;;;7.43;2.95;;;15.60;99.10;;;;;;5036160;28;20041;-88
2023/10/06 08:11:34;;;;;;;9.50;3.67;;;15.70;99.00;;;;;;5034365;28;20377;-85
2023/10/06 08:14:00;;;;;;;9.85;2.80;;;15.70;98.90;;;;;;5035285;28;20037;-87
2023/10/06 08:16:30;;;;;;;8.57;3.28;;;15.70;99.00;;;;;;5034008;28;20032;-89
2023/10/06 08:18:56;;;;;;;6.00;2.70;;;15.80;99.10;;;;;;5035059;28;20044;-87
2023/10/06 08:21:22;;;;;;;9.10;3.10;;;15.90;99.00;;;;;;5034922;28;20033;-84
2023/10/06 08:23:48;;;;;;;8.30;3.17;;;15.90;99.00;;;;;;5036537;28;20029;-84
2023/10/06 08:26:14;;;;;;;11.15;3.20;;;16.00;99.10;;;;;;5035164;28;20075;-85
2023/10/06 08:28:40;;;;;;;8.60;3.50;;;16.10;99.10;;;;;;5035542;28;20042;-89
2023/10/06 08:31:16;;;;;;;7.82;2.83;;;16.10;98.90;;;;;;5035275;28;20462;-89
2023/10/06 08:33:43;;;;;;;7.15;2.90;;;16.20;98.90;;;;;;5035520;28;20046;-86
2023/10/06 08:36:10;;;;;;;11.05;3.53;;;16.30;98.80;;;;;;5035569;28;20110;-85
2023/10/06 08:38:36;;;;;;;13.38;3.38;;;16.30;98.70;;;;;;5034354;28;20034;-87
2023/10/06 08:41:03;;;;;;;9.13;3.63;;;16.40;98.60;;;;;;5033315;28;20394;-87
2023/10/06 08:43:29;;;;;;;15.57;3.08;;;16.40;98.70;;;;;;5034799;28;20033;-85
2023/10/06 08:45:59;;;;;;;7.90;2.80;;;16.50;98.70;;;;;;5034525;28;20362;-84
2023/10/06 08:48:35;;;;;;;8.48;3.13;;;16.60;98.70;;;;;;5034762;28;20156;-83
2023/10/06 08:51:07;;;;;;;8.65;2.78;;;16.60;98.60;;;;;;5034911;28;20038;-86
2023/10/06 08:53:37;;;;;;;10.98;4.13;;;16.60;98.70;;;;;;5035178;28;20037;-85
2023/10/06 08:56:03;;;;;;;9.98;2.97;;;16.70;98.70;;;;;;5036079;28;20036;-82
2023/10/06 08:58:29;;;;;;;11.30;3.55;;;16.70;98.70;;;;;;5035586;28;20033;-83
2023/10/06 09:00:55;;;;;;;6.07;2.63;;;16.80;98.40;;;;;;5034198;28;20041;-85
2023/10/06 09:03:21;;;;;;;10.05;3.15;;;16.80;98.40;;;;;;5034390;28;20031;-88
2023/10/06 09:05:47;;;;;;;10.50;2.80;;;16.80;98.50;;;;;;5038680;28;20057;-84
2023/10/06 09:08:14;;;;;;;11.10;3.38;;;16.90;98.50;;;;;;5036674;28;20037;-87
2023/10/06 09:10:42;;;;;;;10.88;3.08;;;16.80;98.40;;;;;;5035653;28;20038;-84
2023/10/06 09:13:16;;;;;;;7.82;3.30;;;16.80;98.50;;;;;;5034042;28;20026;-86
2023/10/06 09:15:43;;;;;;;8.98;3.17;;;16.80;98.70;;;;;;5034345;28;20040;-82
2023/10/06 09:18:20;;;;;;;11.05;3.42;;;16.90;99.00;;;;;;5034133;28;20036;-83
2023/10/06 09:20:47;;;;;;;10.90;2.92;;;16.90;98.70;;;;;;5033704;28;20128;-83
2023/10/06 09:23:32;;;;;;;9.15;3.30;;;16.90;98.70;;;;;;5033919;28;20053;-80
2023/10/06 09:25:59;;;;;;;10.13;3.38;;;17.00;98.80;;;;;;5034441;28;20421;-83
2023/10/06 09:28:26;;;;;;;9.25;3.47;;;17.00;98.80;;;;;;5035000;28;20033;-82
2023/10/06 09:30:57;;;;;;;11.75;3.60;;;17.00;98.70;;;;;;5032636;28;20040;-81
2023/10/06 09:33:41;;;;;;;7.18;3.30;;;17.00;98.60;;;;;;5033967;28;20045;-81
2023/10/06 09:36:08;;;;;;;12.98;3.90;;;16.90;98.80;;;;;;5032980;28;20115;-80
2023/10/06 09:38:36;;;;;;;10.05;3.67;;;16.90;98.90;;;;;;5033666;28;20109;-77
2023/10/06 09:41:02;;;;;;;12.32;3.63;;;17.00;99.00;;;;;;5033810;28;20032;-81
2023/10/06 09:43:34;;;;;;;9.95;3.88;;;17.00;99.10;;;;;;5033484;28;20034;-77
2023/10/06 09:46:06;;;;;;;9.27;3.67;;;17.00;99.30;;;;;;5032279;28;20021;-81
2023/10/06 09:48:34;;;;;;;10.82;3.63;;;17.00;99.30;;;;;;5034004;28;20474;-80
2023/10/06 09:51:05;;;;;;;7.53;3.67;;;17.00;99.40;;;;;;5033046;28;20128;-78
2023/10/06 09:53:36;;;;;;;13.40;3.83;;;17.10;99.30;;;;;;5033380;28;20520;-81
2023/10/06 09:56:03;;;;;;;14.02;4.25;;;17.10;99.10;;;;;;5033755;28;20029;-80
2023/10/06 09:58:30;;;;;;;12.38;3.75;;;17.10;99.00;;;;;;5033647;28;20040;-78
2023/10/06 10:00:57;;;;;;;10.95;3.55;;;17.10;99.00;;;;;;5016205;28;20030;-79
2023/10/06 10:03:23;;;;;;;11.13;3.92;;;17.10;99.10;;;;;;5032975;28;20029;-80
2023/10/06 10:05:50;;;;;;;11.75;3.00;;;17.20;99.40;;;;;;5033259;28;20041;-79
2023/10/06 10:08:16;;;;;;;11.50;3.33;;;17.40;99.40;;;;;;5033370;28;20392;-79
2023/10/06 10:10:46;;;;;;;9.82;3.10;;;17.50;99.30;;;;;;5032009;28;20030;-79
2023/10/06 10:13:27;;;;;;;11.38;3.53;;;17.70;99.00;;;;;;5033278;28;20030;-79
2023/10/06 10:16:03;;;;;;;11.98;3.42;;;17.80;98.50;;;;;;5033477;28;20030;-80
2023/10/06 10:18:34;;;;;;;8.05;3.20;;;17.70;98.20;;;;;;5032740;28;20421;-79
2023/10/06 10:21:01;;;;;;;7.13;3.50;;;17.80;97.80;;;;;;5036334;28;20030;-81
2023/10/06 10:23:30;;;;;;;13.20;3.45;;;17.90;97.70;;;;;;5036935;28;20343;-79
2023/10/06 10:26:15;;;;;;;12.45;4.07;;;18.00;97.50;;;;;;5036538;28;20118;-78
2023/10/06 10:28:42;;;;;;;7.65;3.42;;;18.00;97.40;;;;;;5036779;28;20069;-78
2023/10/06 10:31:16;;;;;;;11.27;4.03;;;18.20;97.30;;;;;;5036510;28;20059;-77
2023/10/06 10:33:44;;;;;;;9.48;3.33;;;18.30;97.10;;;;;;5038154;28;20053;-83
2023/10/06 10:36:12;;;;;;;12.73;3.20;;;18.30;96.90;;;;;;5036032;28;20422;-85
2023/10/06 10:38:38;;;;;;;14.05;3.55;;;18.40;96.80;;;;;;5036776;28;20037;-84
2023/10/06 10:41:09;;;;;;;10.93;3.30;;;18.50;96.50;;;;;;5035532;28;20030;-83
2023/10/06 10:43:41;;;;;;;8.50;3.50;;;18.60;96.40;;;;;;5035216;28;20170;-84
2023/10/06 10:46:08;;;;;;;11.57;3.33;;;18.70;96.30;;;;;;5036417;28;20036;-82
2023/10/06 10:48:47;;;;;;;7.78;3.53;;;18.70;96.20;;;;;;5036275;28;20052;-83
2023/10/06 10:51:14;;;;;;;11.13;3.22;;;18.70;96.20;;;;;;5036996;28;20033;-81
2023/10/06 10:53:47;;;;;;;7.97;3.50;;;18.70;96.30;;;;;;5036368;28;20063;-84
2023/10/06 10:56:38;;;;;;;8.43;2.92;;;18.60;96.30;;;;;;5036309;28;20036;-82
2023/10/06 10:59:05;;;;;;;6.78;2.42;;;18.60;96.40;;;;;;5036873;28;20524;-82
2023/10/06 11:01:38;;;;;;;8.75;2.65;;;18.50;96.40;;;;;;5036513;28;20021;-82
2023/10/06 11:04:12;;;;;;;6.53;2.40;;;18.50;96.30;;;;;;5036693;28;20026;-78
2023/10/06 11:06:39;;;;;;;9.07;2.40;;;18.50;96.10;;;;;;5035919;28;20080;-84
2023/10/06 11:09:12;;;;;;;9.52;2.80;;;18.50;96.00;;;;;;5036035;28;20048;-84
2023/10/06 11:11:41;;;;;;;9.90;2.55;;;18.40;96.00;;;;;;5036400;28;20065;-82
2023/10/06 11:14:07;;;;;;;8.65;2.50;;;18.40;96.10;;;;;;5036082;28;20474;-84
2023/10/06 11:16:35;;;;;;;11.68;3.30;;;18.40;96.20;;;;;;5035416;28;20052;-84
2023/10/06 11:19:03;;;;;;;9.57;2.83;;;18.40;96.00;;;;;;5034789;28;20029;-82
2023/10/06 11:21:30;;;;;;;9.32;3.35;;;18.40;96.00;;;;;;5035983;28;20474;-84
2023/10/06 11:23:58;;;;;;;11.27;3.03;;;18.50;96.20;;;;;;5035997;28;20033;-86
2023/10/06 11:26:33;;;;;;;12.77;3.33;;;18.50;96.20;;;;;;5035078;28;20430;-83
2023/10/06 11:29:02;;;;;;;10.35;2.53;;;18.60;96.10;;;;;;5037087;28;20124;-82
2023/10/06 11:31:29;;;;;;;8.65;3.00;;;18.60;95.90;;;;;;5038326;28;20053;-83
2023/10/06 11:33:56;;;;;;;6.22;2.50;;;18.60;95.80;;;;;;5037832;28;20053;-83
2023/10/06 11:36:22;;;;;;;15.50;3.83;;;18.60;95.70;;;;;;5036882;28;20045;-83
2023/10/06 11:38:48;;;;;;;7.68;3.00;;;18.60;95.70;;;;;;5037490;28;20374;-82
2023/10/06 11:41:27;;;;;;;8.57;2.83;;;18.70;95.80;;;;;;5035899;28;20459;-81
2023/10/06 11:43:58;;;;;;;8.18;2.70;;;18.70;96.00;;;;;;5036023;28;20029;-82
2023/10/06 11:46:24;;;;;;;11.13;3.05;;;18.80;96.20;;;;;;5034313;28;20032;-82
2023/10/06 11:48:52;;;;;;;10.77;2.85;;;18.80;96.30;;;;;;5036898;28;20033;-83
2023/10/06 11:51:18;;;;;;;7.32;2.95;;;18.80;96.00;;;;;;5037159;28;20069;-83
2023/10/06 11:53:44;;;;;;;9.55;3.30;;;18.90;95.90;;;;;;5036482;28;20032;-83
2023/10/06 11:56:12;;;;;;;11.68;3.42;;;18.90;95.80;;;;;;5036956;28;20180;-84
2023/10/06 11:58:40;;;;;;;7.18;2.88;;;19.00;95.90;;;;;;5036435;28;20036;-82
2023/10/06 12:01:06;;;;;;;12.05;3.20;;;19.10;95.70;;;;;;5035623;28;20454;-84
2023/10/06 12:03:42;;;;;;;8.20;2.90;;;19.10;95.60;;;;;;5035536;28;20030;-83
2023/10/06 12:06:11;;;;;;;6.07;2.63;;;19.10;95.60;;;;;;5035397;28;20033;-83
2023/10/06 12:08:53;;;;;;;7.97;3.28;;;19.20;95.80;;;;;;5034310;28;20025;-83
2023/10/06 12:11:21;;;;;;;8.40;3.17;;;19.30;95.70;;;;;;5036280;28;20037;-83
2023/10/06 12:13:47;;;;;;;12.95;3.50;;;19.40;95.50;;;;;;5037725;28;20033;-82
2023/10/06 12:16:16;;;;;;;10.10;2.97;;;19.40;95.50;;;;;;5037247;28;20083;-82
2023/10/06 12:18:46;;;;;;;7.32;3.22;;;19.40;95.30;;;;;;5040155;28;20125;-81
2023/10/06 12:21:15;;;;;;;6.82;3.28;;;19.40;95.30;;;;;;5038479;28;20057;-82
2023/10/06 12:23:41;;;;;;;8.68;3.45;;;19.40;95.10;;;;;;5038652;28;20021;-83
2023/10/06 12:26:07;;;;;;;11.52;3.47;;;19.40;95.20;;;;;;5038707;28;20040;-81
2023/10/06 12:28:33;;;;;;;7.93;3.20;;;19.30;95.20;;;;;;5036914;28;20033;-83
2023/10/06 12:30:58;;;;;;;12.48;3.20;;;19.30;95.40;;;;;;5035797;28;20030;-81
2023/10/06 12:33:24;;;;;;;10.00;4.20;;;19.30;95.50;;;;;;5039015;28;20060;-82
2023/10/06 12:35:52;;;;;;;7.82;3.13;;;19.40;95.40;;;;;;5037998;28;20029;-84
2023/10/06 12:38:19;;;;;;;10.70;3.20;;;19.30;95.10;;;;;;5041249;28;20029;-83
2023/10/06 12:40:46;;;;;;;8.73;2.75;;;19.30;94.90;;;;;;5039664;28;20036;-84
2023/10/06 12:43:13;;;;;;;12.15;3.33;;;19.30;94.90;;;;;;5036359;28;20112;-84
2023/10/06 12:45:39;;;;;;;9.70;3.70;;;19.30;95.10;;;;;;5034581;28;20482;-82
2023/10/06 12:48:07;;;;;;;8.18;2.78;;;19.30;95.30;;;;;;5035802;28;20042;-84
2023/10/06 12:50:43;;;;;;;7.97;3.35;;;19.30;95.40;;;;;;5038421;28;20026;-83
2023/10/06 12:53:11;;;;;;;8.07;3.20;;;19.20;95.30;;;;;;5038230;28;20029;-83
2023/10/06 12:55:41;;;;;;;8.73;3.20;;;19.30;95.10;;;;;;5036664;28;20067;-84
2023/10/06 12:58:11;;;;;;;11.13;3.33;;;19.20;95.10;;;;;;5036251;28;20038;-83
2023/10/06 13:00:38;;;;;;;8.63;2.72;;;19.20;95.20;;;;;;5037181;28;20422;-83
2023/10/06 13:03:04;;;;;;;9.82;3.45;;;19.20;95.40;;;;;;5036903;28;20382;-83
2023/10/06 13:05:29;;;;;;;7.30;3.10;;;19.20;95.40;;;;;;5035906;28;20025;-84
2023/10/06 13:07:57;;;;;;;10.95;3.63;;;19.20;95.20;;;;;;5035030;28;20051;-79